GCHIGCGM

Guest
Details From GCHI - Hierro
To GCGM - La Gomera
Flight Number -
Tags generated
Created
Modified
Stats Distance 38 nm / 70 km
Max Altitude 1,400 ft / 427 m
Waypoints 3
Social Downloads 0
Likes 0
Share VATSIM

Download

Looking for another format? Having issues loading an existing format? Contact us
Advertisement - Login to hide

Notes

Basic altitude profile: - Ascent Rate: 2500ft/min - Ascent Speed: 250kts - Cruise Altitude: 35000ft - Cruise Speed: 420kts - Descent Rate: 1500ft/min - Descent Speed: 250kts Options: - Use NATs: yes - Use PACOTS: yes - Use low airways: yes - Use high airways: yes

Route

GCHI GOMER GCGM

ID Type Via Altitude (ft/m) Position (lat/lon) Dist (leg/tot) Name
O GCHI APT - 0 / 0 27.81485 / -17.88705 - / 0 nm Hierro
GOMER FIX - 1,400 / 427 28.00000 / -17.33333 31 / 31 nm
O GCGM APT - 0 / 0 28.02963 / -17.21460 6 / 37 nm La Gomera

Altitude Profile

Advertisement - Login to hide

GCHI

Details ICAO GCHI (VDE)
Name Hierro
Region Canary Islands
Timezone Atlantic/Canary (UTC+1.0)
Stats Elevation 103 ft / 31 m (AMSL)
Location 27.814700° -17.886900°
Runways 1
Magnetic Variation 5.528° W

METAR

GCHI 211500Z VRB04KT 9999 FEW035 24/16 Q1015

Decode

TAF

TAF GCHI 211400Z 2115/2215 02006KT 9999 FEW030 TX25/2214Z TN20/2205Z PROB30 TEMPO 2209/2215 4500 RA

Decode

Departure Runways

ID Width Length Bearing (true/mag) Surface Threshold Overrun Markings Lighting
16 98 ft / 30 m 4,110 ft / 1,253 m 152.71° / 158.24° ASPHALT 0 ft / 0 m 0 ft / 0 m APP CENTERLINE EDGE THRESHOLD MALSF
34 98 ft / 30 m 4,110 ft / 1,253 m 332.71° / 338.24° ASPHALT 0 ft / 0 m 0 ft / 0 m APP CENTERLINE EDGE THRESHOLD MALSF

GCGM

Details ICAO GCGM (GMZ)
Name La Gomera
Region Canary Islands
Timezone Atlantic/Canary (UTC+1.0)
Stats Elevation 714 ft / 218 m (AMSL)
Location 28.029600° -17.214600°
Runways 1
Magnetic Variation 5.259° W

METAR

GCGM 211500Z 25014KT 210V290 9999 FEW035 24/14 Q1015 RMK R09/26013KT 230V290 ARP/26013KT 200V290

Decode

TAF

TAF GCGM 211400Z 2115/2215 24014KT 9999 SCT035 TX25/2214Z TN18/2205Z BECMG 2118/2120 31007KT BECMG 2210/2212 22010KT

Decode

Destination Runways

ID Width Length Bearing (true/mag) Surface Threshold Overrun Markings Lighting
09 98 ft / 30 m 4,926 ft / 1,501 m 81.17° / 86.43° ASPHALT 0 ft / 0 m 0 ft / 0 m PREC-APP EDGE THRESHOLD REIL-OMNI
27 98 ft / 30 m 4,926 ft / 1,501 m 261.18° / 266.44° ASPHALT 0 ft / 0 m 0 ft / 0 m PREC-APP EDGE THRESHOLD REIL-OMNI

Popular Alternatives